Pattaya, Thailand
Current Conditions -  °F | °C
As of 4:30 PM on Monday 24 Nov 2014 (Local Time) from VTBU Reporting Station
Haze Haze  
Wind Chill: 88°   Ceiling: 30000
Heat Index: 96°   Visibility: 3mi
Dew Point: 73°   Wind: 5mph
Humidity: 62%   Direction: 340°NNW
Pressure: 29.77"   Gusts: NA
Location:  12.92°N, 100.9°E
Report Text: VTBU 240930Z 34004KT 5000 BR FEW020 SCT120 BKN300 31/23 Q1008 A2978
Loading
Personal Weather Stations






























Interactive Weather Map New forecast layout! Learn more

10-Day Weather Forecast

Advertisements
Track Severe Weather on mobile